sensor_id;sensor_type;location;lat;lon;timestamp;pressure;altitude;pressure_sealevel;temperature;humidity
55759;BME280;41678;52.126;20.664;2022-10-29T00:05:31;100704.69;;;13.35;99.30
55759;BME280;41678;52.126;20.664;2022-10-29T00:10:51;100686.31;;;13.26;98.74
55759;BME280;41678;52.126;20.664;2022-10-29T00:16:19;100688.06;;;13.27;98.87
55759;BME280;41678;52.126;20.664;2022-10-29T00:21:39;100694.28;;;13.23;98.67
55759;BME280;41678;52.126;20.664;2022-10-29T00:27:17;100689.97;;;13.17;98.68
55759;BME280;41678;52.126;20.664;2022-10-29T00:32:36;100692.63;;;13.15;98.50
55759;BME280;41678;52.126;20.664;2022-10-29T00:37:56;100688.25;;;13.14;98.70
55759;BME280;41678;52.126;20.664;2022-10-29T00:43:18;100691.00;;;13.08;98.77
55759;BME280;41678;52.126;20.664;2022-10-29T00:48:41;100685.84;;;12.99;98.65
55759;BME280;41678;52.126;20.664;2022-10-29T00:54:11;100686.72;;;12.99;98.51
55759;BME280;41678;52.126;20.664;2022-10-29T00:59:31;100672.72;;;12.93;98.64
55759;BME280;41678;52.126;20.664;2022-10-29T01:04:51;100669.31;;;12.84;98.72
55759;BME280;41678;52.126;20.664;2022-10-29T01:10:12;100660.53;;;12.84;98.62
55759;BME280;41678;52.126;20.664;2022-10-29T01:16:19;100681.72;;;12.79;98.69
55759;BME280;41678;52.126;20.664;2022-10-29T01:21:43;100679.16;;;12.73;98.61
55759;BME280;41678;52.126;20.664;2022-10-29T01:34:21;100679.25;;;12.67;98.18
55759;BME280;41678;52.126;20.664;2022-10-29T01:45:22;100669.69;;;12.58;98.02
55759;BME280;41678;52.126;20.664;2022-10-29T01:50:45;100660.13;;;12.49;98.19
55759;BME280;41678;52.126;20.664;2022-10-29T01:56:08;100659.28;;;12.47;98.08
55759;BME280;41678;52.126;20.664;2022-10-29T02:01:46;100659.22;;;12.52;98.13
55759;BME280;41678;52.126;20.664;2022-10-29T02:07:42;100652.22;;;12.47;98.10
55759;BME280;41678;52.126;20.664;2022-10-29T02:13:03;100645.22;;;12.43;98.55
55759;BME280;41678;52.126;20.664;2022-10-29T02:18:23;100635.63;;;12.38;97.92
55759;BME280;41678;52.126;20.664;2022-10-29T02:23:43;100634.78;;;12.34;97.87
55759;BME280;41678;52.126;20.664;2022-10-29T02:29:02;100620.78;;;12.27;98.04
55759;BME280;41678;52.126;20.664;2022-10-29T02:34:40;100623.44;;;12.27;98.34
55759;BME280;41678;52.126;20.664;2022-10-29T02:39:59;100625.13;;;12.33;97.88
55759;BME280;41678;52.126;20.664;2022-10-29T02:45:19;100599.72;;;12.26;97.83
55759;BME280;41678;52.126;20.664;2022-10-29T02:50:39;100611.13;;;12.26;98.20
55759;BME280;41678;52.126;20.664;2022-10-29T02:56:16;100615.56;;;12.24;98.21
55759;BME280;41678;52.126;20.664;2022-10-29T03:01:36;100603.28;;;12.22;97.83
55759;BME280;41678;52.126;20.664;2022-10-29T03:07:13;100604.25;;;12.16;97.85
55759;BME280;41678;52.126;20.664;2022-10-29T03:12:33;100598.03;;;12.20;97.86
55759;BME280;41678;52.126;20.664;2022-10-29T03:17:53;100598.97;;;12.16;97.69
55759;BME280;41678;52.126;20.664;2022-10-29T03:23:13;100581.38;;;12.15;97.96
55759;BME280;41678;52.126;20.664;2022-10-29T03:28:52;100579.59;;;12.17;97.66
55759;BME280;41678;52.126;20.664;2022-10-29T03:34:11;100580.41;;;12.21;97.61
55759;BME280;41678;52.126;20.664;2022-10-29T03:39:30;100575.22;;;12.16;97.69
55759;BME280;41678;52.126;20.664;2022-10-29T03:44:50;100584.81;;;12.20;97.58
55759;BME280;41678;52.126;20.664;2022-10-29T03:50:10;100576.06;;;12.18;97.98
55759;BME280;41678;52.126;20.664;2022-10-29T03:55:52;100594.44;;;12.26;97.68
55759;BME280;41678;52.126;20.664;2022-10-29T04:01:12;100595.31;;;12.25;97.48
55759;BME280;41678;52.126;20.664;2022-10-29T04:06:32;100597.06;;;12.24;97.60
55759;BME280;41678;52.126;20.664;2022-10-29T04:11:52;100589.09;;;12.27;97.60
55759;BME280;41678;52.126;20.664;2022-10-29T04:17:11;100582.06;;;12.28;97.51
55759;BME280;41678;52.126;20.664;2022-10-29T04:22:31;100576.81;;;12.26;97.62
55759;BME280;41678;52.126;20.664;2022-10-29T04:27:53;100567.13;;;12.28;97.77
55759;BME280;41678;52.126;20.664;2022-10-29T04:33:13;100564.38;;;12.36;97.14
55759;BME280;41678;52.126;20.664;2022-10-29T04:38:51;100557.38;;;12.32;97.62
55759;BME280;41678;52.126;20.664;2022-10-29T04:44:10;100563.50;;;12.34;97.70
55759;BME280;41678;52.126;20.664;2022-10-29T04:49:49;100572.25;;;12.38;97.70
55759;BME280;41678;52.126;20.664;2022-10-29T04:55:08;100557.38;;;12.32;97.47
55759;BME280;41678;52.126;20.664;2022-10-29T05:00:46;100559.09;;;12.35;97.53
55759;BME280;41678;52.126;20.664;2022-10-29T05:06:06;100571.34;;;12.39;97.51
55759;BME280;41678;52.126;20.664;2022-10-29T05:11:25;100582.75;;;12.42;97.50
55759;BME280;41678;52.126;20.664;2022-10-29T05:16:45;100586.22;;;12.46;97.37
55759;BME280;41678;52.126;20.664;2022-10-29T05:22:23;100594.94;;;12.53;97.08
55759;BME280;41678;52.126;20.664;2022-10-29T05:27:43;100608.94;;;12.58;97.08
55759;BME280;41678;52.126;20.664;2022-10-29T05:33:05;100614.16;;;12.61;97.05
55759;BME280;41678;52.126;20.664;2022-10-29T05:38:25;100605.38;;;12.60;97.20
55759;BME280;41678;52.126;20.664;2022-10-29T05:44:03;100607.03;;;12.68;96.90
55759;BME280;41678;52.126;20.664;2022-10-29T05:49:23;100607.03;;;12.69;97.09
55759;BME280;41678;52.126;20.664;2022-10-29T05:54:43;100603.50;;;12.69;97.06
55759;BME280;41678;52.126;20.664;2022-10-29T06:00:03;100604.31;;;12.72;96.91
55759;BME280;41678;52.126;20.664;2022-10-29T06:05:32;100608.78;;;12.69;97.17
55759;BME280;41678;52.126;20.664;2022-10-29T06:10:51;100585.91;;;12.68;97.34
55759;BME280;41678;52.126;20.664;2022-10-29T06:16:11;100592.97;;;12.66;97.08
55759;BME280;41678;52.126;20.664;2022-10-29T06:21:30;100605.22;;;12.71;97.24
55759;BME280;41678;52.126;20.664;2022-10-29T06:26:52;100600.00;;;12.65;97.14
55759;BME280;41678;52.126;20.664;2022-10-29T06:32:11;100616.69;;;12.69;97.25
55759;BME280;41678;52.126;20.664;2022-10-29T06:37:31;100613.22;;;12.67;97.07
55759;BME280;41678;52.126;20.664;2022-10-29T06:43:03;100619.34;;;12.69;96.96
55759;BME280;41678;52.126;20.664;2022-10-29T06:48:23;100614.94;;;12.68;96.92
55759;BME280;41678;52.126;20.664;2022-10-29T06:53:43;100638.63;;;12.75;96.40
55759;BME280;41678;52.126;20.664;2022-10-29T06:59:02;100638.66;;;12.74;97.04
55759;BME280;41678;52.126;20.664;2022-10-29T07:04:40;100649.13;;;12.80;96.97
55759;BME280;41678;52.126;20.664;2022-10-29T07:09:59;100645.59;;;12.81;96.76
55759;BME280;41678;52.126;20.664;2022-10-29T07:15:19;100646.31;;;12.91;96.68
55759;BME280;41678;52.126;20.664;2022-10-29T07:20:41;100631.22;;;12.98;96.42
55759;BME280;41678;52.126;20.664;2022-10-29T07:26:01;100628.44;;;13.07;96.42
55759;BME280;41678;52.126;20.664;2022-10-29T07:31:20;100610.72;;;13.14;96.50
55759;BME280;41678;52.126;20.664;2022-10-29T07:36:40;100614.94;;;13.24;96.14
55759;BME280;41678;52.126;20.664;2022-10-29T07:42:17;100624.41;;;13.38;95.95
55759;BME280;41678;52.126;20.664;2022-10-29T07:47:38;100627.75;;;13.51;96.01
55759;BME280;41678;52.126;20.664;2022-10-29T07:53:16;100628.25;;;13.70;95.78
55759;BME280;41678;52.126;20.664;2022-10-29T07:58:36;100624.50;;;13.82;95.51
55759;BME280;41678;52.126;20.664;2022-10-29T08:04:14;100605.72;;;13.94;95.60
55759;BME280;41678;52.126;20.664;2022-10-29T08:09:34;100605.38;;;14.10;95.23
55759;BME280;41678;52.126;20.664;2022-10-29T08:15:12;100607.13;;;14.12;95.56
55759;BME280;41678;52.126;20.664;2022-10-29T08:20:49;100617.38;;;14.28;95.25
55759;BME280;41678;52.126;20.664;2022-10-29T08:26:09;100632.28;;;14.34;95.39
55759;BME280;41678;52.126;20.664;2022-10-29T08:31:29;100641.03;;;14.36;95.78
55759;BME280;41678;52.126;20.664;2022-10-29T08:36:49;100640.63;;;14.56;95.33
55759;BME280;41678;52.126;20.664;2022-10-29T08:53:32;100620.56;;;14.83;95.60
55759;BME280;41678;52.126;20.664;2022-10-29T08:59:12;100648.50;;;14.98;95.35
55759;BME280;41678;52.126;20.664;2022-10-29T09:04:35;100650.97;;;15.06;95.17
55759;BME280;41678;52.126;20.664;2022-10-29T09:10:12;100654.28;;;15.16;95.21
55759;BME280;41678;52.126;20.664;2022-10-29T09:16:07;100637.53;;;15.14;95.51
55759;BME280;41678;52.126;20.664;2022-10-29T09:21:38;100636.34;;;15.26;95.49
55759;BME280;41678;52.126;20.664;2022-10-29T09:27:18;100643.91;;;15.41;95.27
55759;BME280;41678;52.126;20.664;2022-10-29T09:32:59;100626.25;;;15.40;95.67
55759;BME280;41678;52.126;20.664;2022-10-29T09:38:25;100629.56;;;15.49;95.45
55759;BME280;41678;52.126;20.664;2022-10-29T09:55:27;100656.66;;;15.62;94.83
55759;BME280;41678;52.126;20.664;2022-10-29T10:00:48;100674.94;;;15.72;95.07
55759;BME280;41678;52.126;20.664;2022-10-29T10:06:09;100684.53;;;15.78;95.01
55759;BME280;41678;52.126;20.664;2022-10-29T10:11:41;100669.63;;;15.72;95.11
55759;BME280;41678;52.126;20.664;2022-10-29T10:17:02;100658.22;;;15.69;95.11
55759;BME280;41678;52.126;20.664;2022-10-29T10:22:45;100660.59;;;15.80;95.33
55759;BME280;41678;52.126;20.664;2022-10-29T10:28:23;100658.78;;;15.82;95.28
55759;BME280;41678;52.126;20.664;2022-10-29T10:40:03;100694.28;;;15.78;95.37
55759;BME280;41678;52.126;20.664;2022-10-29T10:45:42;100692.50;;;15.77;95.74
55759;BME280;41678;52.126;20.664;2022-10-29T10:51:29;100681.75;;;15.83;95.23
55759;BME280;41678;52.126;20.664;2022-10-29T11:08:37;100682.56;;;15.85;95.97
55759;BME280;41678;52.126;20.664;2022-10-29T11:14:49;100681.59;;;15.89;96.12
55759;BME280;41678;52.126;20.664;2022-10-29T11:20:37;100681.25;;;16.02;95.68
55759;BME280;41678;52.126;20.664;2022-10-29T11:37:59;100669.47;;;16.12;95.48
55759;BME280;41678;52.126;20.664;2022-10-29T11:43:20;100668.78;;;16.05;95.66
55759;BME280;41678;52.126;20.664;2022-10-29T11:49:05;100686.34;;;16.11;95.74
55759;BME280;41678;52.126;20.664;2022-10-29T11:54:41;100688.91;;;16.14;95.86
55759;BME280;41678;52.126;20.664;2022-10-29T12:00:22;100674.72;;;16.13;95.97
55759;BME280;41678;52.126;20.664;2022-10-29T12:06:23;100660.50;;;16.16;95.77
55759;BME280;41678;52.126;20.664;2022-10-29T12:12:06;100665.72;;;16.19;95.62
55759;BME280;41678;52.126;20.664;2022-10-29T12:17:50;100680.69;;;16.23;95.40
55759;BME280;41678;52.126;20.664;2022-10-29T12:23:24;100669.94;;;16.26;95.15
55759;BME280;41678;52.126;20.664;2022-10-29T12:40:25;100686.47;;;16.38;94.84
55759;BME280;41678;52.126;20.664;2022-10-29T12:51:50;100680.28;;;16.36;93.88
55759;BME280;41678;52.126;20.664;2022-10-29T13:24:20;100688.16;;;16.09;92.99
55759;BME280;41678;52.126;20.664;2022-10-29T13:30:11;100675.88;;;16.05;92.82
55759;BME280;41678;52.126;20.664;2022-10-29T13:41:37;100683.00;;;16.03;93.21
55759;BME280;41678;52.126;20.664;2022-10-29T13:47:18;100679.63;;;15.97;93.30
55759;BME280;41678;52.126;20.664;2022-10-29T13:52:39;100677.09;;;15.93;93.17
55759;BME280;41678;52.126;20.664;2022-10-29T13:58:12;100678.09;;;15.87;93.63
55759;BME280;41678;52.126;20.664;2022-10-29T14:09:22;100674.72;;;15.80;93.97
55759;BME280;41678;52.126;20.664;2022-10-29T14:15:07;100678.19;;;15.84;94.01
55759;BME280;41678;52.126;20.664;2022-10-29T14:20:28;100674.94;;;15.72;94.29
55759;BME280;41678;52.126;20.664;2022-10-29T14:26:16;100680.94;;;15.79;94.22
55759;BME280;41678;52.126;20.664;2022-10-29T14:31:36;100681.25;;;15.68;94.07
55759;BME280;41678;52.126;20.664;2022-10-29T14:37:17;100677.09;;;15.58;94.19
55759;BME280;41678;52.126;20.664;2022-10-29T14:42:42;100690.22;;;15.64;94.08
55759;BME280;41678;52.126;20.664;2022-10-29T14:48:08;100690.41;;;15.56;94.17
55759;BME280;41678;52.126;20.664;2022-10-29T14:53:35;100676.34;;;15.53;94.15
55759;BME280;41678;52.126;20.664;2022-10-29T14:58:57;100688.06;;;15.44;94.31
55759;BME280;41678;52.126;20.664;2022-10-29T15:04:19;100692.59;;;15.39;94.47
55759;BME280;41678;52.126;20.664;2022-10-29T15:09:40;100695.41;;;15.33;94.34
55759;BME280;41678;52.126;20.664;2022-10-29T15:15:27;100702.72;;;15.23;94.46
55759;BME280;41678;52.126;20.664;2022-10-29T15:20:48;100692.34;;;15.13;94.75
55759;BME280;41678;52.126;20.664;2022-10-29T15:26:21;100692.50;;;15.07;94.78
55759;BME280;41678;52.126;20.664;2022-10-29T15:31:59;100702.38;;;15.00;94.86
55759;BME280;41678;52.126;20.664;2022-10-29T15:37:40;100686.72;;;14.90;94.88
55759;BME280;41678;52.126;20.664;2022-10-29T15:43:26;100689.50;;;14.83;95.07
55759;BME280;41678;52.126;20.664;2022-10-29T15:48:47;100688.75;;;14.78;94.93
55759;BME280;41678;52.126;20.664;2022-10-29T15:54:12;100682.69;;;14.73;95.27
55759;BME280;41678;52.126;20.664;2022-10-29T15:59:37;100697.63;;;14.76;95.15
55759;BME280;41678;52.126;20.664;2022-10-29T16:04:57;100691.69;;;14.64;95.30
55759;BME280;41678;52.126;20.664;2022-10-29T16:10:19;100702.22;;;14.66;95.27
55759;BME280;41678;52.126;20.664;2022-10-29T16:15:39;100683.91;;;14.56;95.34
55759;BME280;41678;52.126;20.664;2022-10-29T16:21:20;100691.06;;;14.51;95.33
55759;BME280;41678;52.126;20.664;2022-10-29T16:26:41;100711.41;;;14.49;95.39
55759;BME280;41678;52.126;20.664;2022-10-29T16:32:21;100708.84;;;14.44;95.54
55759;BME280;41678;52.126;20.664;2022-10-29T16:37:41;100703.78;;;14.34;95.50
55759;BME280;41678;52.126;20.664;2022-10-29T16:43:02;100708.25;;;14.31;95.59
55759;BME280;41678;52.126;20.664;2022-10-29T16:48:21;100696.06;;;14.23;95.83
55759;BME280;41678;52.126;20.664;2022-10-29T16:54:00;100691.75;;;14.17;95.60
55759;BME280;41678;52.126;20.664;2022-10-29T16:59:20;100691.81;;;14.14;95.33
55759;BME280;41678;52.126;20.664;2022-10-29T17:04:39;100688.34;;;14.12;95.61
55759;BME280;41678;52.126;20.664;2022-10-29T17:09:59;100693.75;;;14.06;95.66
55759;BME280;41678;52.126;20.664;2022-10-29T17:15:18;100710.53;;;14.05;95.67
55759;BME280;41678;52.126;20.664;2022-10-29T17:20:38;100712.47;;;13.96;95.65
55759;BME280;41678;52.126;20.664;2022-10-29T17:26:16;100717.84;;;13.90;95.85
55759;BME280;41678;52.126;20.664;2022-10-29T17:31:35;100711.72;;;13.88;95.69
55759;BME280;41678;52.126;20.664;2022-10-29T17:36:55;100714.44;;;13.85;95.66
55759;BME280;41678;52.126;20.664;2022-10-29T17:42:34;100714.44;;;13.85;95.74
55759;BME280;41678;52.126;20.664;2022-10-29T17:48:12;100683.78;;;13.73;95.81
55759;BME280;41678;52.126;20.664;2022-10-29T17:53:31;100691.75;;;13.70;95.84
55759;BME280;41678;52.126;20.664;2022-10-29T17:58:51;100701.44;;;13.71;95.72
55759;BME280;41678;52.126;20.664;2022-10-29T18:04:29;100701.63;;;13.62;95.90
55759;BME280;41678;52.126;20.664;2022-10-29T18:09:49;100714.91;;;13.57;96.03
55759;BME280;41678;52.126;20.664;2022-10-29T18:15:28;100724.53;;;13.61;96.07
55759;BME280;41678;52.126;20.664;2022-10-29T18:20:47;100712.34;;;13.52;96.00
55759;BME280;41678;52.126;20.664;2022-10-29T18:26:32;100729.91;;;13.56;96.05
55759;BME280;41678;52.126;20.664;2022-10-29T18:31:53;100730.91;;;13.49;96.01
55759;BME280;41678;52.126;20.664;2022-10-29T18:37:13;100728.34;;;13.44;96.19
55759;BME280;41678;52.126;20.664;2022-10-29T18:42:33;100721.38;;;13.37;96.12
55759;BME280;41678;52.126;20.664;2022-10-29T18:47:53;100727.59;;;13.33;96.25
55759;BME280;41678;52.126;20.664;2022-10-29T18:53:31;100733.78;;;13.35;96.11
55759;BME280;41678;52.126;20.664;2022-10-29T18:58:50;100740.09;;;13.25;96.19
55759;BME280;41678;52.126;20.664;2022-10-29T19:04:13;100748.91;;;13.24;96.05
55759;BME280;41678;52.126;20.664;2022-10-29T19:09:33;100749.94;;;13.13;96.08
55759;BME280;41678;52.126;20.664;2022-10-29T19:14:52;100751.78;;;13.08;96.13
55759;BME280;41678;52.126;20.664;2022-10-29T19:20:12;100754.44;;;13.08;96.30
55759;BME280;41678;52.126;20.664;2022-10-29T19:25:38;100757.97;;;13.07;96.20
55759;BME280;41678;52.126;20.664;2022-10-29T19:31:07;100755.34;;;13.04;96.25
55759;BME280;41678;52.126;20.664;2022-10-29T19:36:28;100763.34;;;13.01;96.14
55759;BME280;41678;52.126;20.664;2022-10-29T19:41:48;100759.06;;;12.92;96.43
55759;BME280;41678;52.126;20.664;2022-10-29T19:47:07;100763.47;;;12.92;96.84
55759;BME280;41678;52.126;20.664;2022-10-29T19:52:26;100760.00;;;12.86;96.43
55759;BME280;41678;52.126;20.664;2022-10-29T19:57:46;100753.03;;;12.82;96.42
55759;BME280;41678;52.126;20.664;2022-10-29T20:03:06;100753.06;;;12.79;96.45
55759;BME280;41678;52.126;20.664;2022-10-29T20:08:25;100763.63;;;12.79;96.51
55759;BME280;41678;52.126;20.664;2022-10-29T20:14:04;100765.44;;;12.75;96.30
55759;BME280;41678;52.126;20.664;2022-10-29T20:19:23;100752.28;;;12.71;96.33
55759;BME280;41678;52.126;20.664;2022-10-29T20:24:42;100741.81;;;12.63;96.59
55759;BME280;41678;52.126;20.664;2022-10-29T20:30:21;100733.94;;;12.58;96.43
55759;BME280;41678;52.126;20.664;2022-10-29T20:35:41;100728.69;;;12.55;96.43
55759;BME280;41678;52.126;20.664;2022-10-29T20:41:20;100737.47;;;12.57;96.27
55759;BME280;41678;52.126;20.664;2022-10-29T20:46:40;100745.47;;;12.53;96.65
55759;BME280;41678;52.126;20.664;2022-10-29T20:52:00;100742.91;;;12.48;96.22
55759;BME280;41678;52.126;20.664;2022-10-29T20:57:20;100742.03;;;12.46;96.48
55759;BME280;41678;52.126;20.664;2022-10-29T21:02:39;100730.69;;;12.39;96.52
55759;BME280;41678;52.126;20.664;2022-10-29T21:07:58;100746.47;;;12.41;96.65
55759;BME280;41678;52.126;20.664;2022-10-29T21:13:18;100742.19;;;12.33;96.40
55759;BME280;41678;52.126;20.664;2022-10-29T21:18:41;100754.50;;;12.33;96.44
55759;BME280;41678;52.126;20.664;2022-10-29T21:24:01;100754.50;;;12.33;96.76
55759;BME280;41678;52.126;20.664;2022-10-29T21:29:21;100729.91;;;12.29;96.42
55759;BME280;41678;52.126;20.664;2022-10-29T21:34:40;100729.03;;;12.27;96.69
55759;BME280;41678;52.126;20.664;2022-10-29T21:40:18;100731.72;;;12.24;96.76
55759;BME280;41678;52.126;20.664;2022-10-29T21:45:40;100725.56;;;12.24;96.50
55759;BME280;41678;52.126;20.664;2022-10-29T21:51:19;100722.94;;;12.22;96.90
55759;BME280;41678;52.126;20.664;2022-10-29T21:56:38;100730.81;;;12.25;96.62
55759;BME280;41678;52.126;20.664;2022-10-29T22:01:58;100754.53;;;12.30;96.50
55759;BME280;41678;52.126;20.664;2022-10-29T22:07:19;100743.13;;;12.29;96.46
55759;BME280;41678;52.126;20.664;2022-10-29T22:12:56;100726.38;;;12.29;97.07
55759;BME280;41678;52.126;20.664;2022-10-29T22:18:35;100710.53;;;12.29;97.13
55759;BME280;41678;52.126;20.664;2022-10-29T22:23:56;100715.69;;;12.40;96.70
55759;BME280;41678;52.126;20.664;2022-10-29T22:29:15;100703.47;;;12.32;96.95
55759;BME280;41678;52.126;20.664;2022-10-29T22:34:35;100706.97;;;12.35;97.15
55759;BME280;41678;52.126;20.664;2022-10-29T22:39:54;100685.84;;;12.33;97.20
55759;BME280;41678;52.126;20.664;2022-10-29T22:45:15;100695.41;;;12.42;97.21
55759;BME280;41678;52.126;20.664;2022-10-29T22:50:34;100698.06;;;12.42;97.15
55759;BME280;41678;52.126;20.664;2022-10-29T22:55:54;100693.66;;;12.41;97.16
55759;BME280;41678;52.126;20.664;2022-10-29T23:01:22;100712.09;;;12.47;97.04
55759;BME280;41678;52.126;20.664;2022-10-29T23:07:00;100722.63;;;12.49;97.22
55759;BME280;41678;52.126;20.664;2022-10-29T23:12:19;100710.34;;;12.44;97.22
55759;BME280;41678;52.126;20.664;2022-10-29T23:17:39;100692.81;;;12.40;97.30
55759;BME280;41678;52.126;20.664;2022-10-29T23:22:59;100698.00;;;12.46;97.28
55759;BME280;41678;52.126;20.664;2022-10-29T23:28:38;100696.25;;;12.47;97.28
55759;BME280;41678;52.126;20.664;2022-10-29T23:33:57;100705.03;;;12.49;97.40
55759;BME280;41678;52.126;20.664;2022-10-29T23:39:17;100701.59;;;12.44;97.36
55759;BME280;41678;52.126;20.664;2022-10-29T23:44:37;100722.63;;;12.50;97.51
55759;BME280;41678;52.126;20.664;2022-10-29T23:49:57;100721.81;;;12.45;97.07
55759;BME280;41678;52.126;20.664;2022-10-29T23:55:16;100703.34;;;12.43;97.41
